Main page
METAR-TAF:

METAR-TAF

Airports :

Lomé, Togo

Lomé–Tokoin International Airport

latitude: 06-10N, longitude: 001-15E, elevation: 20 m

Current weather observation

The report was made 1 hour and 9 minutes ago, at 14:00 UTC
Wind 13 kt from the South/Southwest
Temperature 28°C
Humidity 79%
Pressure 1012 hPa
Visibility 10 km or more
Scattered clouds at a height of 1200 ft

METAR: DXXX 191400Z 20013KT 9999 SCT012 28/24 Q1012 NOSIG

Time: 15:09 (15:09 UTC)

Forecast

The report was made 3 hours and 39 minutes ago, at 11:30 UTC
Forecast valid from 19 at 12 UTC to 20 at 18 UTC
Wind 13 kt from the Southwest
Visibility 10 km or more
Scattered clouds at a height of 1200 ft
Probability 30% :
Temporary
from 19 at 14 UTC to 19 at 20 UTC
Visibility: 4000 m
Broken clouds at a height of 1200 ft
Few clouds at a height of 2000 ft, Cumulonimbus.
thunderstorm, rain

TAF: DXXX 191130Z 1912/2018 22013KT 9999 SCT012 PROB30 TEMPO 1914/1920 4000 TSRA BKN012 FEW020CB

Weather observations and forecasts of more than 4000 airports (METAR and TAF reports).

The available stations are represented by yellow and red dots on the map.

Hover mouse over dot to see the name of the station.

Then click to see weather observations and forecasts.

To change the map : click on the green buttons with a black cross to zoom in, on the green button with a dash to zoom out, or on the green arrows for adjacent maps.


METAR-TAF: